sensor_id;sensor_type;location;lat;lon;timestamp;temperature;humidity
7846;DHT22;3968;51.424;6.788;2022-07-23T00:00:15;18.10;99.90
7846;DHT22;3968;51.424;6.788;2022-07-23T00:02:41;18.10;99.90
7846;DHT22;3968;51.424;6.788;2022-07-23T00:05:07;18.20;99.90
7846;DHT22;3968;51.424;6.788;2022-07-23T00:07:33;18.20;99.90
7846;DHT22;3968;51.424;6.788;2022-07-23T00:09:59;18.20;99.90
7846;DHT22;3968;51.424;6.788;2022-07-23T00:12:25;17.90;99.90
7846;DHT22;3968;51.424;6.788;2022-07-23T00:14:50;18.10;99.90
7846;DHT22;3968;51.424;6.788;2022-07-23T00:17:16;18.10;99.90
7846;DHT22;3968;51.424;6.788;2022-07-23T00:19:42;17.80;99.90
7846;DHT22;3968;51.424;6.788;2022-07-23T00:22:07;18.20;99.90
7846;DHT22;3968;51.424;6.788;2022-07-23T00:24:33;18.20;99.90
7846;DHT22;3968;51.424;6.788;2022-07-23T00:26:59;18.10;99.90
7846;DHT22;3968;51.424;6.788;2022-07-23T00:29:24;18.10;99.90
7846;DHT22;3968;51.424;6.788;2022-07-23T00:31:50;18.10;99.90
7846;DHT22;3968;51.424;6.788;2022-07-23T00:34:16;18.10;99.90
7846;DHT22;3968;51.424;6.788;2022-07-23T00:36:41;18.10;99.90
7846;DHT22;3968;51.424;6.788;2022-07-23T00:39:07;18.10;99.90
7846;DHT22;3968;51.424;6.788;2022-07-23T00:41:33;18.10;99.90
7846;DHT22;3968;51.424;6.788;2022-07-23T00:44:24;18.10;99.90
7846;DHT22;3968;51.424;6.788;2022-07-23T00:46:53;18.10;99.90
7846;DHT22;3968;51.424;6.788;2022-07-23T00:49:20;18.10;99.90
7846;DHT22;3968;51.424;6.788;2022-07-23T00:51:47;18.00;99.90
7846;DHT22;3968;51.424;6.788;2022-07-23T00:54:13;18.00;99.90
7846;DHT22;3968;51.424;6.788;2022-07-23T00:59:05;18.00;99.90
7846;DHT22;3968;51.424;6.788;2022-07-23T01:01:31;17.90;99.90
7846;DHT22;3968;51.424;6.788;2022-07-23T01:03:57;17.90;99.90
7846;DHT22;3968;51.424;6.788;2022-07-23T01:06:23;17.90;99.90
7846;DHT22;3968;51.424;6.788;2022-07-23T01:08:48;17.80;99.90
7846;DHT22;3968;51.424;6.788;2022-07-23T01:11:14;17.80;99.90
7846;DHT22;3968;51.424;6.788;2022-07-23T01:13:43;17.90;99.90
7846;DHT22;3968;51.424;6.788;2022-07-23T01:16:09;17.90;99.90
7846;DHT22;3968;51.424;6.788;2022-07-23T01:18:34;17.90;99.90
7846;DHT22;3968;51.424;6.788;2022-07-23T01:21:00;17.90;99.90
7846;DHT22;3968;51.424;6.788;2022-07-23T01:25:53;17.90;99.90
7846;DHT22;3968;51.424;6.788;2022-07-23T01:28:19;17.90;99.90
7846;DHT22;3968;51.424;6.788;2022-07-23T01:30:45;17.90;99.90
7846;DHT22;3968;51.424;6.788;2022-07-23T01:33:11;17.90;99.90
7846;DHT22;3968;51.424;6.788;2022-07-23T01:35:37;17.90;99.90
7846;DHT22;3968;51.424;6.788;2022-07-23T01:38:02;17.80;99.90
7846;DHT22;3968;51.424;6.788;2022-07-23T01:40:28;17.80;99.90
7846;DHT22;3968;51.424;6.788;2022-07-23T01:42:54;17.80;99.90
7846;DHT22;3968;51.424;6.788;2022-07-23T01:45:19;17.80;99.90
7846;DHT22;3968;51.424;6.788;2022-07-23T01:47:45;17.80;99.90
7846;DHT22;3968;51.424;6.788;2022-07-23T01:50:11;17.80;99.90
7846;DHT22;3968;51.424;6.788;2022-07-23T01:52:37;17.80;99.90
7846;DHT22;3968;51.424;6.788;2022-07-23T01:55:03;17.70;99.90
7846;DHT22;3968;51.424;6.788;2022-07-23T01:57:29;17.70;99.90
7846;DHT22;3968;51.424;6.788;2022-07-23T01:59:54;17.60;99.90
7846;DHT22;3968;51.424;6.788;2022-07-23T02:02:20;17.60;99.90
7846;DHT22;3968;51.424;6.788;2022-07-23T02:04:46;17.60;99.90
7846;DHT22;3968;51.424;6.788;2022-07-23T02:07:11;17.60;99.90
7846;DHT22;3968;51.424;6.788;2022-07-23T02:09:37;17.50;99.90
7846;DHT22;3968;51.424;6.788;2022-07-23T02:12:03;17.60;99.90
7846;DHT22;3968;51.424;6.788;2022-07-23T02:14:28;17.60;99.90
7846;DHT22;3968;51.424;6.788;2022-07-23T02:16:54;17.50;99.90
7846;DHT22;3968;51.424;6.788;2022-07-23T02:19:20;17.50;99.90
7846;DHT22;3968;51.424;6.788;2022-07-23T02:21:46;17.40;99.90
7846;DHT22;3968;51.424;6.788;2022-07-23T02:24:12;17.30;99.90
7846;DHT22;3968;51.424;6.788;2022-07-23T02:26:37;17.30;99.90
7846;DHT22;3968;51.424;6.788;2022-07-23T02:29:04;17.20;99.90
7846;DHT22;3968;51.424;6.788;2022-07-23T02:31:30;17.20;99.90
7846;DHT22;3968;51.424;6.788;2022-07-23T02:33:56;17.30;99.90
7846;DHT22;3968;51.424;6.788;2022-07-23T02:36:23;17.30;99.90
7846;DHT22;3968;51.424;6.788;2022-07-23T02:38:48;17.30;99.90
7846;DHT22;3968;51.424;6.788;2022-07-23T02:41:14;17.30;99.90
7846;DHT22;3968;51.424;6.788;2022-07-23T02:43:40;17.40;99.90
7846;DHT22;3968;51.424;6.788;2022-07-23T02:46:05;17.30;99.90
7846;DHT22;3968;51.424;6.788;2022-07-23T02:48:31;17.30;99.90
7846;DHT22;3968;51.424;6.788;2022-07-23T02:50:57;17.30;99.90
7846;DHT22;3968;51.424;6.788;2022-07-23T02:53:23;17.30;99.90
7846;DHT22;3968;51.424;6.788;2022-07-23T02:55:49;17.30;99.90
7846;DHT22;3968;51.424;6.788;2022-07-23T02:58:15;17.30;99.90
7846;DHT22;3968;51.424;6.788;2022-07-23T03:00:40;17.30;99.90
7846;DHT22;3968;51.424;6.788;2022-07-23T03:03:06;17.30;99.90
7846;DHT22;3968;51.424;6.788;2022-07-23T03:05:33;17.20;99.90
7846;DHT22;3968;51.424;6.788;2022-07-23T03:07:59;17.20;99.90
7846;DHT22;3968;51.424;6.788;2022-07-23T03:10:25;17.40;99.90
7846;DHT22;3968;51.424;6.788;2022-07-23T03:12:50;17.10;99.90
7846;DHT22;3968;51.424;6.788;2022-07-23T03:15:16;17.00;99.90
7846;DHT22;3968;51.424;6.788;2022-07-23T03:17:42;17.00;99.90
7846;DHT22;3968;51.424;6.788;2022-07-23T03:20:08;17.00;99.90
7846;DHT22;3968;51.424;6.788;2022-07-23T03:22:34;17.00;99.90
7846;DHT22;3968;51.424;6.788;2022-07-23T03:24:59;16.90;99.90
7846;DHT22;3968;51.424;6.788;2022-07-23T03:27:27;16.80;99.90
7846;DHT22;3968;51.424;6.788;2022-07-23T03:29:56;16.80;99.90
7846;DHT22;3968;51.424;6.788;2022-07-23T03:32:23;16.80;99.90
7846;DHT22;3968;51.424;6.788;2022-07-23T03:34:49;16.70;99.90
7846;DHT22;3968;51.424;6.788;2022-07-23T03:37:15;16.70;99.90
7846;DHT22;3968;51.424;6.788;2022-07-23T03:39:41;16.20;99.90
7846;DHT22;3968;51.424;6.788;2022-07-23T03:42:07;16.60;99.90
7846;DHT22;3968;51.424;6.788;2022-07-23T03:44:33;16.60;99.90
7846;DHT22;3968;51.424;6.788;2022-07-23T03:46:59;16.50;99.90
7846;DHT22;3968;51.424;6.788;2022-07-23T03:49:24;16.50;99.90
7846;DHT22;3968;51.424;6.788;2022-07-23T03:51:50;16.50;99.90
7846;DHT22;3968;51.424;6.788;2022-07-23T03:54:16;16.40;99.90
7846;DHT22;3968;51.424;6.788;2022-07-23T03:56:42;16.20;99.90
7846;DHT22;3968;51.424;6.788;2022-07-23T03:59:08;16.30;99.90
7846;DHT22;3968;51.424;6.788;2022-07-23T04:01:34;16.40;99.90
7846;DHT22;3968;51.424;6.788;2022-07-23T04:04:00;16.30;99.90
7846;DHT22;3968;51.424;6.788;2022-07-23T04:06:26;16.40;99.90
7846;DHT22;3968;51.424;6.788;2022-07-23T04:08:51;16.50;99.90
7846;DHT22;3968;51.424;6.788;2022-07-23T04:11:17;16.50;99.90
7846;DHT22;3968;51.424;6.788;2022-07-23T04:13:43;16.50;99.90
7846;DHT22;3968;51.424;6.788;2022-07-23T04:16:08;16.50;99.90
7846;DHT22;3968;51.424;6.788;2022-07-23T04:18:34;16.50;99.90
7846;DHT22;3968;51.424;6.788;2022-07-23T04:20:59;16.50;99.90
7846;DHT22;3968;51.424;6.788;2022-07-23T04:23:25;16.50;99.90
7846;DHT22;3968;51.424;6.788;2022-07-23T04:25:51;16.50;99.90
7846;DHT22;3968;51.424;6.788;2022-07-23T04:28:16;16.50;99.90
7846;DHT22;3968;51.424;6.788;2022-07-23T04:30:42;16.50;99.90
7846;DHT22;3968;51.424;6.788;2022-07-23T04:33:08;16.50;99.90
7846;DHT22;3968;51.424;6.788;2022-07-23T04:35:34;16.50;99.90
7846;DHT22;3968;51.424;6.788;2022-07-23T04:38:00;16.40;99.90
7846;DHT22;3968;51.424;6.788;2022-07-23T04:40:26;16.50;99.90
7846;DHT22;3968;51.424;6.788;2022-07-23T04:42:52;16.50;99.90
7846;DHT22;3968;51.424;6.788;2022-07-23T04:45:18;16.50;99.90
7846;DHT22;3968;51.424;6.788;2022-07-23T04:47:43;16.50;99.90
7846;DHT22;3968;51.424;6.788;2022-07-23T04:50:09;16.60;99.90
7846;DHT22;3968;51.424;6.788;2022-07-23T04:52:35;16.50;99.90
7846;DHT22;3968;51.424;6.788;2022-07-23T04:55:00;16.50;99.90
7846;DHT22;3968;51.424;6.788;2022-07-23T04:57:26;16.60;99.90
7846;DHT22;3968;51.424;6.788;2022-07-23T04:59:52;16.60;99.90
7846;DHT22;3968;51.424;6.788;2022-07-23T05:02:17;16.60;99.90
7846;DHT22;3968;51.424;6.788;2022-07-23T05:04:43;16.70;99.90
7846;DHT22;3968;51.424;6.788;2022-07-23T05:07:09;16.80;99.90
7846;DHT22;3968;51.424;6.788;2022-07-23T05:09:34;16.80;99.90
7846;DHT22;3968;51.424;6.788;2022-07-23T05:12:00;16.70;99.90
7846;DHT22;3968;51.424;6.788;2022-07-23T05:14:26;16.80;99.90
7846;DHT22;3968;51.424;6.788;2022-07-23T05:16:52;16.80;99.90
7846;DHT22;3968;51.424;6.788;2022-07-23T05:19:18;16.80;99.90
7846;DHT22;3968;51.424;6.788;2022-07-23T05:21:43;16.80;99.90
7846;DHT22;3968;51.424;6.788;2022-07-23T05:24:09;16.90;99.90
7846;DHT22;3968;51.424;6.788;2022-07-23T05:26:34;16.90;99.90
7846;DHT22;3968;51.424;6.788;2022-07-23T05:29:00;17.00;99.90
7846;DHT22;3968;51.424;6.788;2022-07-23T05:31:26;17.00;99.90
7846;DHT22;3968;51.424;6.788;2022-07-23T05:36:17;17.10;99.90
7846;DHT22;3968;51.424;6.788;2022-07-23T05:38:43;17.10;99.90
7846;DHT22;3968;51.424;6.788;2022-07-23T05:41:09;17.10;99.90
7846;DHT22;3968;51.424;6.788;2022-07-23T05:43:34;17.20;99.90
7846;DHT22;3968;51.424;6.788;2022-07-23T05:46:00;17.20;99.90
7846;DHT22;3968;51.424;6.788;2022-07-23T05:48:26;17.30;99.90
7846;DHT22;3968;51.424;6.788;2022-07-23T05:50:51;17.30;99.90
7846;DHT22;3968;51.424;6.788;2022-07-23T05:53:17;17.40;99.90
7846;DHT22;3968;51.424;6.788;2022-07-23T05:55:43;17.40;99.90
7846;DHT22;3968;51.424;6.788;2022-07-23T05:58:09;17.50;99.90
7846;DHT22;3968;51.424;6.788;2022-07-23T06:00:35;17.50;99.90
7846;DHT22;3968;51.424;6.788;2022-07-23T06:03:00;17.60;99.90
7846;DHT22;3968;51.424;6.788;2022-07-23T06:05:26;17.60;99.90
7846;DHT22;3968;51.424;6.788;2022-07-23T06:07:52;17.70;99.90
7846;DHT22;3968;51.424;6.788;2022-07-23T06:10:18;17.80;99.90
7846;DHT22;3968;51.424;6.788;2022-07-23T06:12:44;17.80;99.90
7846;DHT22;3968;51.424;6.788;2022-07-23T06:15:10;17.60;99.90
7846;DHT22;3968;51.424;6.788;2022-07-23T06:17:36;17.90;99.90
7846;DHT22;3968;51.424;6.788;2022-07-23T06:20:05;17.90;99.90
7846;DHT22;3968;51.424;6.788;2022-07-23T06:22:31;17.90;99.90
7846;DHT22;3968;51.424;6.788;2022-07-23T06:24:57;18.00;99.90
7846;DHT22;3968;51.424;6.788;2022-07-23T06:27:22;18.20;99.90
7846;DHT22;3968;51.424;6.788;2022-07-23T06:29:48;18.20;99.90
7846;DHT22;3968;51.424;6.788;2022-07-23T06:32:14;18.30;99.90
7846;DHT22;3968;51.424;6.788;2022-07-23T06:34:39;18.30;99.90
7846;DHT22;3968;51.424;6.788;2022-07-23T06:37:05;18.40;99.90
7846;DHT22;3968;51.424;6.788;2022-07-23T06:39:31;18.50;99.90
7846;DHT22;3968;51.424;6.788;2022-07-23T06:41:56;18.80;99.90
7846;DHT22;3968;51.424;6.788;2022-07-23T06:44:22;19.10;99.90
7846;DHT22;3968;51.424;6.788;2022-07-23T06:46:48;18.80;99.90
7846;DHT22;3968;51.424;6.788;2022-07-23T06:49:13;18.80;99.90
7846;DHT22;3968;51.424;6.788;2022-07-23T06:54:05;19.10;99.90
7846;DHT22;3968;51.424;6.788;2022-07-23T06:56:31;19.10;99.90
7846;DHT22;3968;51.424;6.788;2022-07-23T06:58:56;19.20;99.90
7846;DHT22;3968;51.424;6.788;2022-07-23T07:01:22;19.30;99.90
7846;DHT22;3968;51.424;6.788;2022-07-23T07:03:48;19.40;99.90
7846;DHT22;3968;51.424;6.788;2022-07-23T07:06:14;19.50;99.90
7846;DHT22;3968;51.424;6.788;2022-07-23T07:08:39;19.50;99.90
7846;DHT22;3968;51.424;6.788;2022-07-23T07:11:05;19.60;99.90
7846;DHT22;3968;51.424;6.788;2022-07-23T07:15:57;19.80;99.90
7846;DHT22;3968;51.424;6.788;2022-07-23T07:18:23;19.90;99.90
7846;DHT22;3968;51.424;6.788;2022-07-23T07:20:48;20.00;99.90
7846;DHT22;3968;51.424;6.788;2022-07-23T07:23:14;20.00;99.90
7846;DHT22;3968;51.424;6.788;2022-07-23T07:25:40;20.00;99.90
7846;DHT22;3968;51.424;6.788;2022-07-23T07:28:06;20.10;99.90
7846;DHT22;3968;51.424;6.788;2022-07-23T07:30:31;20.30;99.90
7846;DHT22;3968;51.424;6.788;2022-07-23T07:32:57;20.40;99.90
7846;DHT22;3968;51.424;6.788;2022-07-23T07:35:23;21.10;99.90
7846;DHT22;3968;51.424;6.788;2022-07-23T07:37:48;20.80;99.90
7846;DHT22;3968;51.424;6.788;2022-07-23T07:40:14;20.80;99.90
7846;DHT22;3968;51.424;6.788;2022-07-23T07:42:51;20.90;99.90
7846;DHT22;3968;51.424;6.788;2022-07-23T07:45:19;20.90;99.90
7846;DHT22;3968;51.424;6.788;2022-07-23T07:47:45;20.90;99.90
7846;DHT22;3968;51.424;6.788;2022-07-23T07:50:11;20.70;99.90
7846;DHT22;3968;51.424;6.788;2022-07-23T07:52:36;20.90;99.90
7846;DHT22;3968;51.424;6.788;2022-07-23T07:55:03;20.90;99.90
7846;DHT22;3968;51.424;6.788;2022-07-23T07:57:29;21.00;99.90
7846;DHT22;3968;51.424;6.788;2022-07-23T07:59:55;20.90;99.90
7846;DHT22;3968;51.424;6.788;2022-07-23T08:02:21;21.10;99.90
7846;DHT22;3968;51.424;6.788;2022-07-23T08:04:46;21.50;99.90
7846;DHT22;3968;51.424;6.788;2022-07-23T08:07:14;21.90;99.90
7846;DHT22;3968;51.424;6.788;2022-07-23T08:12:06;22.40;99.90
7846;DHT22;3968;51.424;6.788;2022-07-23T08:14:32;22.60;99.90
7846;DHT22;3968;51.424;6.788;2022-07-23T08:16:58;22.80;99.90
7846;DHT22;3968;51.424;6.788;2022-07-23T08:19:23;22.80;99.90
7846;DHT22;3968;51.424;6.788;2022-07-23T08:21:49;23.40;99.90
7846;DHT22;3968;51.424;6.788;2022-07-23T08:24:14;22.90;99.90
7846;DHT22;3968;51.424;6.788;2022-07-23T08:26:40;23.10;99.90
7846;DHT22;3968;51.424;6.788;2022-07-23T08:29:06;22.90;99.90
7846;DHT22;3968;51.424;6.788;2022-07-23T08:31:32;22.30;99.90
7846;DHT22;3968;51.424;6.788;2022-07-23T08:33:59;22.30;99.90
7846;DHT22;3968;51.424;6.788;2022-07-23T08:36:25;22.30;99.90
7846;DHT22;3968;51.424;6.788;2022-07-23T08:38:53;22.50;99.90
7846;DHT22;3968;51.424;6.788;2022-07-23T08:41:20;22.20;99.90
7846;DHT22;3968;51.424;6.788;2022-07-23T08:43:45;22.30;99.90
7846;DHT22;3968;51.424;6.788;2022-07-23T08:46:13;22.30;99.90
7846;DHT22;3968;51.424;6.788;2022-07-23T08:48:38;22.50;99.90
7846;DHT22;3968;51.424;6.788;2022-07-23T08:51:05;22.50;99.90
7846;DHT22;3968;51.424;6.788;2022-07-23T08:53:33;22.70;99.90
7846;DHT22;3968;51.424;6.788;2022-07-23T08:56:01;22.80;99.90
7846;DHT22;3968;51.424;6.788;2022-07-23T08:58:27;22.70;99.90
7846;DHT22;3968;51.424;6.788;2022-07-23T09:00:53;22.60;99.90
7846;DHT22;3968;51.424;6.788;2022-07-23T09:03:21;22.60;99.90
7846;DHT22;3968;51.424;6.788;2022-07-23T09:05:48;22.60;99.90
7846;DHT22;3968;51.424;6.788;2022-07-23T09:08:17;23.00;99.90
7846;DHT22;3968;51.424;6.788;2022-07-23T09:10:59;22.90;99.90
7846;DHT22;3968;51.424;6.788;2022-07-23T09:15:56;23.10;99.90
7846;DHT22;3968;51.424;6.788;2022-07-23T09:21:25;23.20;99.90
7846;DHT22;3968;51.424;6.788;2022-07-23T09:23:56;23.20;99.90
7846;DHT22;3968;51.424;6.788;2022-07-23T09:29:09;23.40;99.90
7846;DHT22;3968;51.424;6.788;2022-07-23T09:31:42;23.40;99.90
7846;DHT22;3968;51.424;6.788;2022-07-23T09:34:25;23.40;99.90
7846;DHT22;3968;51.424;6.788;2022-07-23T09:36:54;23.30;99.90
7846;DHT22;3968;51.424;6.788;2022-07-23T09:39:33;23.40;99.90
7846;DHT22;3968;51.424;6.788;2022-07-23T09:42:19;23.20;99.90
7846;DHT22;3968;51.424;6.788;2022-07-23T09:44:50;23.60;99.90
7846;DHT22;3968;51.424;6.788;2022-07-23T09:47:17;23.70;99.90
7846;DHT22;3968;51.424;6.788;2022-07-23T09:52:27;23.90;99.90
7846;DHT22;3968;51.424;6.788;2022-07-23T09:54:59;23.90;99.90
7846;DHT22;3968;51.424;6.788;2022-07-23T09:57:26;23.70;99.90
7846;DHT22;3968;51.424;6.788;2022-07-23T09:59:52;24.00;99.90
7846;DHT22;3968;51.424;6.788;2022-07-23T10:02:18;24.70;99.90
7846;DHT22;3968;51.424;6.788;2022-07-23T10:04:45;24.70;99.90
7846;DHT22;3968;51.424;6.788;2022-07-23T10:07:11;26.50;99.90
7846;DHT22;3968;51.424;6.788;2022-07-23T10:09:39;27.30;99.90
7846;DHT22;3968;51.424;6.788;2022-07-23T10:12:11;28.00;99.90
7846;DHT22;3968;51.424;6.788;2022-07-23T10:14:57;28.30;99.90
7846;DHT22;3968;51.424;6.788;2022-07-23T10:17:23;28.70;97.50
7846;DHT22;3968;51.424;6.788;2022-07-23T10:19:49;29.50;97.50
7846;DHT22;3968;51.424;6.788;2022-07-23T10:22:29;30.90;86.50
7846;DHT22;3968;51.424;6.788;2022-07-23T10:27:58;32.00;68.90
7846;DHT22;3968;51.424;6.788;2022-07-23T10:30:39;32.00;66.90
7846;DHT22;3968;51.424;6.788;2022-07-23T10:36:19;30.70;68.60
7846;DHT22;3968;51.424;6.788;2022-07-23T10:39:03;30.80;70.70
7846;DHT22;3968;51.424;6.788;2022-07-23T10:44:08;33.70;58.00
7846;DHT22;3968;51.424;6.788;2022-07-23T10:46:34;34.30;55.40
7846;DHT22;3968;51.424;6.788;2022-07-23T10:49:28;34.50;52.40
7846;DHT22;3968;51.424;6.788;2022-07-23T10:54:51;35.40;51.70
7846;DHT22;3968;51.424;6.788;2022-07-23T10:57:23;36.50;46.10
7846;DHT22;3968;51.424;6.788;2022-07-23T11:02:29;36.60;45.40
7846;DHT22;3968;51.424;6.788;2022-07-23T11:18:54;37.40;42.80
7846;DHT22;3968;51.424;6.788;2022-07-23T11:32:03;38.00;36.80
7846;DHT22;3968;51.424;6.788;2022-07-23T11:34:42;38.40;37.10
7846;DHT22;3968;51.424;6.788;2022-07-23T11:37:26;37.90;36.60
7846;DHT22;3968;51.424;6.788;2022-07-23T11:39:56;38.30;36.60
7846;DHT22;3968;51.424;6.788;2022-07-23T11:42:22;39.10;34.60
7846;DHT22;3968;51.424;6.788;2022-07-23T11:44:50;39.30;34.30
7846;DHT22;3968;51.424;6.788;2022-07-23T11:47:24;39.60;33.90
7846;DHT22;3968;51.424;6.788;2022-07-23T11:49:56;39.90;32.70
7846;DHT22;3968;51.424;6.788;2022-07-23T11:52:22;40.00;32.90
7846;DHT22;3968;51.424;6.788;2022-07-23T11:54:59;40.40;32.70
7846;DHT22;3968;51.424;6.788;2022-07-23T11:57:29;40.20;31.20
7846;DHT22;3968;51.424;6.788;2022-07-23T11:59:57;39.10;32.70
7846;DHT22;3968;51.424;6.788;2022-07-23T12:02:23;40.00;35.10
7846;DHT22;3968;51.424;6.788;2022-07-23T12:04:52;39.90;32.40
7846;DHT22;3968;51.424;6.788;2022-07-23T12:07:29;40.30;31.20
7846;DHT22;3968;51.424;6.788;2022-07-23T12:09:55;40.20;31.50
7846;DHT22;3968;51.424;6.788;2022-07-23T12:12:22;38.70;33.80
7846;DHT22;3968;51.424;6.788;2022-07-23T12:14:49;38.60;32.00
7846;DHT22;3968;51.424;6.788;2022-07-23T12:17:15;39.00;31.30
7846;DHT22;3968;51.424;6.788;2022-07-23T12:19:41;38.10;33.20
7846;DHT22;3968;51.424;6.788;2022-07-23T12:22:07;39.20;30.30
7846;DHT22;3968;51.424;6.788;2022-07-23T12:24:59;38.90;32.10
7846;DHT22;3968;51.424;6.788;2022-07-23T12:27:25;39.90;31.50
7846;DHT22;3968;51.424;6.788;2022-07-23T12:29:52;40.80;29.80
7846;DHT22;3968;51.424;6.788;2022-07-23T12:32:20;41.20;29.00
7846;DHT22;3968;51.424;6.788;2022-07-23T12:34:46;41.40;29.00
7846;DHT22;3968;51.424;6.788;2022-07-23T12:37:49;41.20;27.60
7846;DHT22;3968;51.424;6.788;2022-07-23T12:43:09;39.80;29.80
7846;DHT22;3968;51.424;6.788;2022-07-23T12:45:47;40.80;28.70
7846;DHT22;3968;51.424;6.788;2022-07-23T12:48:18;40.30;29.00
7846;DHT22;3968;51.424;6.788;2022-07-23T12:58:25;40.90;28.80
7846;DHT22;3968;51.424;6.788;2022-07-23T13:01:00;40.90;27.50
7846;DHT22;3968;51.424;6.788;2022-07-23T13:03:39;40.90;28.30
7846;DHT22;3968;51.424;6.788;2022-07-23T13:06:08;40.20;28.30
7846;DHT22;3968;51.424;6.788;2022-07-23T13:08:36;40.10;30.10
7846;DHT22;3968;51.424;6.788;2022-07-23T13:11:03;40.50;27.90
7846;DHT22;3968;51.424;6.788;2022-07-23T13:13:31;40.70;29.70
7846;DHT22;3968;51.424;6.788;2022-07-23T13:15:58;40.80;28.00
7846;DHT22;3968;51.424;6.788;2022-07-23T13:18:25;41.00;28.30
7846;DHT22;3968;51.424;6.788;2022-07-23T13:20:51;40.90;27.00
7846;DHT22;3968;51.424;6.788;2022-07-23T13:23:18;40.30;29.80
7846;DHT22;3968;51.424;6.788;2022-07-23T13:25:44;40.80;28.20
7846;DHT22;3968;51.424;6.788;2022-07-23T13:28:11;41.00;27.50
7846;DHT22;3968;51.424;6.788;2022-07-23T13:30:36;40.30;27.70
7846;DHT22;3968;51.424;6.788;2022-07-23T13:33:03;40.20;28.40
7846;DHT22;3968;51.424;6.788;2022-07-23T13:35:30;38.90;28.80
7846;DHT22;3968;51.424;6.788;2022-07-23T13:37:55;38.90;29.50
7846;DHT22;3968;51.424;6.788;2022-07-23T13:40:21;40.00;29.50
7846;DHT22;3968;51.424;6.788;2022-07-23T13:42:47;40.00;28.30
7846;DHT22;3968;51.424;6.788;2022-07-23T13:45:13;38.20;28.50
7846;DHT22;3968;51.424;6.788;2022-07-23T13:47:39;36.60;30.80
7846;DHT22;3968;51.424;6.788;2022-07-23T13:50:05;37.20;31.20
7846;DHT22;3968;51.424;6.788;2022-07-23T13:52:31;37.20;30.80
7846;DHT22;3968;51.424;6.788;2022-07-23T13:55:00;38.20;31.10
7846;DHT22;3968;51.424;6.788;2022-07-23T13:57:26;38.70;30.30
7846;DHT22;3968;51.424;6.788;2022-07-23T13:59:51;39.30;30.20
7846;DHT22;3968;51.424;6.788;2022-07-23T14:02:17;39.60;29.60
7846;DHT22;3968;51.424;6.788;2022-07-23T14:04:43;40.50;31.80
7846;DHT22;3968;51.424;6.788;2022-07-23T14:07:10;40.90;28.30
7846;DHT22;3968;51.424;6.788;2022-07-23T14:09:36;40.20;30.40
7846;DHT22;3968;51.424;6.788;2022-07-23T14:12:03;41.00;29.90
7846;DHT22;3968;51.424;6.788;2022-07-23T14:14:28;40.80;28.20
7846;DHT22;3968;51.424;6.788;2022-07-23T14:16:55;40.50;28.50
7846;DHT22;3968;51.424;6.788;2022-07-23T14:21:47;37.60;29.50
7846;DHT22;3968;51.424;6.788;2022-07-23T14:24:14;38.10;33.00
7846;DHT22;3968;51.424;6.788;2022-07-23T14:26:40;37.80;30.70
7846;DHT22;3968;51.424;6.788;2022-07-23T14:29:06;36.60;30.90
7846;DHT22;3968;51.424;6.788;2022-07-23T14:31:31;36.30;31.90
7846;DHT22;3968;51.424;6.788;2022-07-23T14:33:57;36.60;32.60
7846;DHT22;3968;51.424;6.788;2022-07-23T14:36:24;37.50;35.60
7846;DHT22;3968;51.424;6.788;2022-07-23T14:38:50;37.50;32.50
7846;DHT22;3968;51.424;6.788;2022-07-23T14:41:16;38.50;34.30
7846;DHT22;3968;51.424;6.788;2022-07-23T14:43:42;39.20;30.80
7846;DHT22;3968;51.424;6.788;2022-07-23T14:46:08;38.70;32.90
7846;DHT22;3968;51.424;6.788;2022-07-23T14:48:34;37.90;33.60
7846;DHT22;3968;51.424;6.788;2022-07-23T14:51:00;38.30;35.00
7846;DHT22;3968;51.424;6.788;2022-07-23T14:53:25;35.80;35.50
7846;DHT22;3968;51.424;6.788;2022-07-23T14:55:51;35.50;38.30
7846;DHT22;3968;51.424;6.788;2022-07-23T14:58:16;35.10;34.10
7846;DHT22;3968;51.424;6.788;2022-07-23T15:00:43;35.30;34.20
7846;DHT22;3968;51.424;6.788;2022-07-23T15:03:08;35.40;38.90
7846;DHT22;3968;51.424;6.788;2022-07-23T15:05:34;36.10;38.50
7846;DHT22;3968;51.424;6.788;2022-07-23T15:10:26;35.00;36.90
7846;DHT22;3968;51.424;6.788;2022-07-23T15:15:17;33.90;38.30
7846;DHT22;3968;51.424;6.788;2022-07-23T15:17:43;34.10;35.50
7846;DHT22;3968;51.424;6.788;2022-07-23T15:20:09;35.40;39.00
7846;DHT22;3968;51.424;6.788;2022-07-23T15:22:35;35.60;38.00
7846;DHT22;3968;51.424;6.788;2022-07-23T15:25:00;34.90;38.80
7846;DHT22;3968;51.424;6.788;2022-07-23T15:27:27;34.60;35.10
7846;DHT22;3968;51.424;6.788;2022-07-23T15:29:52;31.80;37.10
7846;DHT22;3968;51.424;6.788;2022-07-23T15:32:18;35.90;39.50
7846;DHT22;3968;51.424;6.788;2022-07-23T15:34:44;35.20;40.90
7846;DHT22;3968;51.424;6.788;2022-07-23T15:37:09;34.90;41.60
7846;DHT22;3968;51.424;6.788;2022-07-23T15:39:35;33.70;42.10
7846;DHT22;3968;51.424;6.788;2022-07-23T15:42:02;33.00;44.50
7846;DHT22;3968;51.424;6.788;2022-07-23T15:44:28;32.20;45.10
7846;DHT22;3968;51.424;6.788;2022-07-23T15:46:55;31.60;47.20
7846;DHT22;3968;51.424;6.788;2022-07-23T15:49:21;31.10;48.10
7846;DHT22;3968;51.424;6.788;2022-07-23T15:54:12;31.20;43.30
7846;DHT22;3968;51.424;6.788;2022-07-23T15:56:41;30.80;44.30
7846;DHT22;3968;51.424;6.788;2022-07-23T15:59:08;29.00;54.10
7846;DHT22;3968;51.424;6.788;2022-07-23T16:01:34;28.70;57.20
7846;DHT22;3968;51.424;6.788;2022-07-23T16:03:59;28.20;60.10
7846;DHT22;3968;51.424;6.788;2022-07-23T16:06:26;28.10;55.40
7846;DHT22;3968;51.424;6.788;2022-07-23T16:08:52;29.20;64.00
7846;DHT22;3968;51.424;6.788;2022-07-23T16:11:18;28.90;57.10
7846;DHT22;3968;51.424;6.788;2022-07-23T16:13:44;28.90;57.20
7846;DHT22;3968;51.424;6.788;2022-07-23T16:16:10;28.90;57.50
7846;DHT22;3968;51.424;6.788;2022-07-23T16:18:38;29.20;61.80
7846;DHT22;3968;51.424;6.788;2022-07-23T16:21:04;28.80;62.00
7846;DHT22;3968;51.424;6.788;2022-07-23T16:23:30;28.60;64.30
7846;DHT22;3968;51.424;6.788;2022-07-23T16:25:55;27.90;66.70
7846;DHT22;3968;51.424;6.788;2022-07-23T16:28:21;27.80;67.80
7846;DHT22;3968;51.424;6.788;2022-07-23T16:30:47;27.10;70.40
7846;DHT22;3968;51.424;6.788;2022-07-23T16:33:12;27.40;66.80
7846;DHT22;3968;51.424;6.788;2022-07-23T16:35:38;27.60;67.80
7846;DHT22;3968;51.424;6.788;2022-07-23T16:38:04;27.70;65.50
7846;DHT22;3968;51.424;6.788;2022-07-23T16:40:31;27.90;69.50
7846;DHT22;3968;51.424;6.788;2022-07-23T16:42:57;27.90;68.40
7846;DHT22;3968;51.424;6.788;2022-07-23T16:45:24;27.90;62.00
7846;DHT22;3968;51.424;6.788;2022-07-23T16:47:50;27.90;62.80
7846;DHT22;3968;51.424;6.788;2022-07-23T16:50:16;27.50;71.90
7846;DHT22;3968;51.424;6.788;2022-07-23T16:52:42;28.20;73.10
7846;DHT22;3968;51.424;6.788;2022-07-23T16:55:09;27.90;65.10
7846;DHT22;3968;51.424;6.788;2022-07-23T16:57:34;27.80;75.30
7846;DHT22;3968;51.424;6.788;2022-07-23T17:00:00;27.60;74.60
7846;DHT22;3968;51.424;6.788;2022-07-23T17:02:26;27.90;68.90
7846;DHT22;3968;51.424;6.788;2022-07-23T17:04:52;27.80;76.10
7846;DHT22;3968;51.424;6.788;2022-07-23T17:07:18;27.80;68.90
7846;DHT22;3968;51.424;6.788;2022-07-23T17:09:44;28.00;79.90
7846;DHT22;3968;51.424;6.788;2022-07-23T17:12:10;27.30;79.00
7846;DHT22;3968;51.424;6.788;2022-07-23T17:14:36;27.90;79.80
7846;DHT22;3968;51.424;6.788;2022-07-23T17:17:02;27.10;79.80
7846;DHT22;3968;51.424;6.788;2022-07-23T17:19:28;27.60;82.90
7846;DHT22;3968;51.424;6.788;2022-07-23T17:21:54;27.20;73.30
7846;DHT22;3968;51.424;6.788;2022-07-23T17:24:20;26.90;87.40